Time;durP1;ratioP1;P1;durP2;ratioP2;P2;SDS_P1;SDS_P2;PMS_P1;PMS_P2;Temp;Humidity;BMP_temperature;BMP_pressure;BME280_temperature;BME280_humidity;BME280_pressure;Samples;Min_cycle;Max_cycle;Signal;HPM_P1;HPM_P2
2023/03/04 00:01:53;;;;;;;23.70;11.32;;;;;;;0.86;100.00;101194.69;4975489;28;20178;-92
2023/03/04 00:04:26;;;;;;;;;;;;;;;0.84;100.00;101191.22;4958394;28;20035;-91
2023/03/04 00:07:09;;;;;;;25.58;11.05;;;;;;;0.54;100.00;101139.78;4975158;28;19910;-92
2023/03/04 00:09:50;;;;;;;23.00;11.23;;;;;;;0.59;100.00;101138.97;4960247;28;20086;-92
2023/03/04 00:12:24;;;;;;;25.50;12.27;;;;;;;0.20;100.00;101079.66;4973569;28;20055;-93
2023/03/04 00:14:56;;;;;;;23.55;11.88;;;;;;;0.16;100.00;101072.69;4969634;28;20060;-92
2023/03/04 00:17:45;;;;;;;25.83;12.63;;;;;;;0.84;100.00;101189.47;4978150;28;20035;-92
2023/03/04 00:20:27;;;;;;;27.55;12.43;;;;;;;0.74;100.00;101169.44;4969011;28;20035;-93
2023/03/04 00:23:00;;;;;;;26.13;12.30;;;;;;;0.87;100.00;101184.28;4968696;28;20035;-91
2023/03/04 00:25:35;;;;;;;23.63;12.50;;;;;;;0.92;100.00;101190.41;4979899;28;20054;-91
2023/03/04 00:28:13;;;;;;;28.00;12.90;;;;;;;0.93;100.00;101192.16;4977540;28;20061;-91
2023/03/04 00:30:45;;;;;;;26.27;13.15;;;;;;;0.93;100.00;101193.88;4965451;28;20072;-92
2023/03/04 00:33:26;;;;;;;29.10;13.35;;;;;;;0.81;100.00;101183.38;4972044;29;20047;-91
2023/03/04 00:36:13;;;;;;;27.23;13.35;;;;;;;0.77;100.00;101164.25;4957208;28;20027;-91
2023/03/04 00:38:48;;;;;;;31.88;14.48;;;;;;;0.85;100.00;101183.41;4948821;29;20027;-94
2023/03/04 00:41:17;;;;;;;33.00;15.60;;;;;;;0.92;100.00;101190.41;4954539;29;20043;-92
2023/03/04 00:43:48;;;;;;;31.27;14.40;;;;;;;0.92;100.00;101195.63;4960536;28;20066;-92
2023/03/04 00:46:32;;;;;;;32.15;14.43;;;;;;;0.93;100.00;101192.16;4959563;28;20064;-91
2023/03/04 00:49:00;;;;;;;28.55;13.70;;;;;;;0.92;100.00;101190.41;4955643;28;20091;-92
2023/03/04 00:51:33;;;;;;;35.38;15.13;;;;;;;0.75;100.00;101160.75;4953963;29;20060;-92
2023/03/04 00:54:07;;;;;;;34.70;16.27;;;;;;;0.22;100.00;101074.47;4944206;29;20043;-93
2023/03/04 00:56:39;;;;;;;35.42;15.57;;;;;;;0.68;100.00;101159.84;4977120;23;20060;-93
2023/03/04 00:59:26;;;;;;;31.73;15.75;;;;;;;0.24;100.00;101084.03;4955290;28;20032;-91
2023/03/04 01:02:17;;;;;;;34.40;17.33;;;;;;;0.89;100.00;101189.50;4965032;28;20027;-91
2023/03/04 01:04:47;;;;;;;38.25;16.80;;;;;;;0.45;100.00;101118.91;4956664;29;20055;-91
2023/03/04 01:07:20;;;;;;;40.58;18.08;;;;;;;0.79;100.00;101185.97;4943898;29;20036;-92
2023/03/04 01:10:03;;;;;;;43.08;19.02;;;;;;;0.76;100.00;101190.31;5114866;23;20035;-92
2023/03/04 01:12:41;;;;;;;38.70;17.10;;;;;;;0.74;100.00;101195.53;4972850;28;20192;-92
2023/03/04 01:15:11;;;;;;;38.35;18.15;;;;;;;0.53;100.00;101158.88;4967579;28;20035;-93
2023/03/04 01:17:47;;;;;;;39.65;16.73;;;;;;;0.06;100.00;101085.66;4955773;29;20063;-93
2023/03/04 01:20:26;;;;;;;37.78;16.13;;;;;;;0.28;100.00;101124.00;4950655;29;20036;-93
2023/03/04 01:23:02;;;;;;;;;;;;;;;0.61;100.00;101180.69;4972558;29;20065;-93
2023/03/04 01:25:38;;;;;;;36.40;15.75;;;;;;;0.56;100.00;101179.75;4971973;29;19949;-93
2023/03/04 01:28:21;;;;;;;37.13;16.15;;;;;;;0.57;100.00;101176.28;4973306;29;20047;-92
2023/03/04 01:30:48;;;;;;;36.80;16.35;;;;;;;0.13;100.00;101106.56;4970769;29;20047;-92
2023/03/04 01:33:25;;;;;;;35.50;16.75;;;;;;;0.26;100.00;101130.94;4972269;29;20047;-92
2023/03/04 01:35:57;;;;;;;34.78;15.57;;;;;;;0.23;100.00;101133.53;4967625;29;20039;-93
2023/03/04 01:38:36;;;;;;;35.33;16.75;;;;;;;0.21;100.00;101125.69;4965379;28;20077;-93
2023/03/04 01:41:07;;;;;;;34.17;16.08;;;;;;;0.15;100.00;101120.47;4960568;29;20484;-93
2023/03/04 01:43:50;;;;;;;35.75;16.20;;;;;;;0.31;100.00;101148.34;4960665;29;20035;-92
2023/03/04 01:46:25;;;;;;;35.83;16.80;;;;;;;0.27;100.00;101143.97;4948231;29;20047;-92
2023/03/04 01:48:55;;;;;;;35.22;15.82;;;;;;;0.25;100.00;101130.06;4956167;29;20042;-92
2023/03/04 01:51:25;;;;;;;35.85;16.42;;;;;;;0.28;100.00;101132.69;4958242;29;20053;-92
2023/03/04 01:53:53;;;;;;;38.83;17.00;;;;;;;-0.01;100.00;101095.19;4939020;29;20035;-94
2023/03/04 01:56:48;;;;;;;38.10;16.38;;;;;;;0.01;100.00;101096.03;4947315;29;20043;-93
2023/03/04 01:59:24;;;;;;;31.95;15.13;;;;;;;-0.14;100.00;101081.16;4959974;28;20110;-93
2023/03/04 02:02:00;;;;;;;35.90;16.35;;;;;;;-0.20;100.00;101067.25;4949020;29;20503;-90
2023/03/04 02:04:35;;;;;;;36.35;16.58;;;;;;;-0.19;100.00;101069.88;4949244;28;20051;-91
2023/03/04 02:07:28;;;;;;;32.33;16.35;;;;;;;0.10;100.00;101110.84;4956786;28;20555;-92
2023/03/04 02:10:09;;;;;;;31.50;15.25;;;;;;;-0.02;100.00;101090.81;4975470;28;20142;-90
2023/03/04 02:12:52;;;;;;;34.47;15.82;;;;;;;0.20;100.00;101123.94;4967595;29;20047;-91
2023/03/04 02:15:24;;;;;;;34.85;15.75;;;;;;;0.09;100.00;101103.91;4952396;29;20087;-92
2023/03/04 02:21:47;;;;;;;;;;;;;;;0.14;100.00;101120.44;4971805;29;20046;-90
2023/03/04 02:24:51;;;;;;;39.72;17.20;;;;;;;0.15;100.00;101119.59;4967053;29;19925;-92
2023/03/04 02:27:31;;;;;;;38.53;16.38;;;;;;;0.13;100.00;101103.94;4958215;29;20431;-92
2023/03/04 02:30:20;;;;;;;36.22;17.30;;;;;;;-0.05;100.00;101075.19;4960130;29;20067;-93
2023/03/04 02:33:04;;;;;;;40.33;17.90;;;;;;;-0.10;100.00;101071.66;4959377;29;20131;-93
2023/03/04 02:35:33;;;;;;;;;;;;;;;0.08;100.00;101109.97;4967948;28;20059;-91
2023/03/04 02:38:20;;;;;;;42.63;18.25;;;;;;;-0.33;100.00;101045.47;4964514;29;19922;-92
2023/03/04 02:41:28;;;;;;;39.50;17.98;;;;;;;-0.16;100.00;101076.84;4970911;29;20039;-92
2023/03/04 02:44:18;;;;;;;47.05;18.90;;;;;;;-0.50;100.00;101019.31;4971158;28;20047;-91
2023/03/04 02:46:52;;;;;;;44.08;18.40;;;;;;;-0.17;100.00;101072.50;4975268;28;20043;-93
2023/03/04 02:49:29;;;;;;;45.70;19.50;;;;;;;-0.32;100.00;101044.63;4968808;28;20039;-89
2023/03/04 02:52:04;;;;;;;44.08;19.33;;;;;;;0.06;100.00;101104.75;4968459;29;20078;-93
2023/03/04 02:54:37;;;;;;;43.20;19.17;;;;;;;-0.07;100.00;101084.69;4956528;29;20044;-93
2023/03/04 02:57:29;;;;;;;43.85;18.60;;;;;;;0.06;100.00;101099.53;4954505;29;20081;-93
2023/03/04 02:59:56;;;;;;;41.30;18.90;;;;;;;-0.31;100.00;101041.13;4936743;29;20436;-92
2023/03/04 03:02:48;;;;;;;39.75;18.25;;;;;;;0.07;100.00;101105.63;4950581;29;20055;-91
2023/03/04 03:05:31;;;;;;;40.25;17.90;;;;;;;0.04;100.00;101090.84;4960927;28;20467;-91
2023/03/04 03:08:05;;;;;;;41.65;19.05;;;;;;;0.03;100.00;101104.72;4965292;28;20110;-92
2023/03/04 03:10:36;;;;;;;47.67;20.02;;;;;;;-0.64;100.00;100992.34;4963910;29;20061;-91
2023/03/04 03:13:07;;;;;;;51.58;19.83;;;;;;;-0.36;100.00;101038.50;4955577;28;20138;-89
2023/03/04 03:15:47;;;;;;;50.63;19.63;;;;;;;-0.25;100.00;101035.09;4968928;28;20043;-90
2023/03/04 03:18:22;;;;;;;47.33;19.58;;;;;;;-0.14;100.00;101052.53;4968504;28;20051;-93
2023/03/04 03:21:05;;;;;;;46.50;19.55;;;;;;;0.15;100.00;101097.03;4916033;29;20449;-92
2023/03/04 03:23:57;;;;;;;41.30;18.42;;;;;;;0.12;100.00;101083.09;4954006;29;20051;-92
2023/03/04 03:26:31;;;;;;;45.70;19.30;;;;;;;-0.06;100.00;101044.78;4960934;29;20071;-94
2023/03/04 03:29:01;;;;;;;47.38;19.77;;;;;;;-0.31;100.00;100998.63;4958527;29;20166;-93
2023/03/04 03:31:43;;;;;;;50.88;20.38;;;;;;;0.16;100.00;101072.69;4952480;28;20058;-93
2023/03/04 03:34:10;;;;;;;51.08;20.55;;;;;;;-0.18;100.00;101010.88;4958136;28;20039;-94
2023/03/04 03:36:44;;;;;;;51.35;21.10;;;;;;;0.22;100.00;101080.56;4955267;28;20051;-94
2023/03/04 03:39:17;;;;;;;50.70;21.77;;;;;;;-0.23;100.00;100999.56;4948838;28;20046;-93
2023/03/04 03:41:44;;;;;;;51.85;23.13;;;;;;;-0.15;100.00;101000.47;4954405;29;20047;-92
2023/03/04 03:44:17;;;;;;;48.30;20.90;;;;;;;0.09;100.00;101047.50;4963168;29;20063;-91
2023/03/04 03:47:01;;;;;;;51.97;21.58;;;;;;;0.40;100.00;101095.41;4964784;29;20096;-93
2023/03/04 03:49:30;;;;;;;54.13;21.98;;;;;;;0.16;100.00;101053.63;4953403;28;20051;-92
2023/03/04 03:52:11;;;;;;;57.50;22.35;;;;;;;0.00;100.00;101026.63;4967667;28;20070;-94
2023/03/04 03:55:03;;;;;;;54.92;21.83;;;;;;;0.39;100.00;101093.69;4973220;28;20051;-94
2023/03/04 03:58:02;;;;;;;55.63;21.92;;;;;;;0.38;100.00;101096.25;4973349;28;20055;-92
2023/03/04 04:01:08;;;;;;;56.08;21.35;;;;;;;-0.26;100.00;100976.09;4963382;28;20043;-94
2023/03/04 04:04:05;;;;;;;58.15;23.17;;;;;;;-0.01;100.00;101028.34;4954162;29;20047;-95
2023/03/04 04:06:49;;;;;;;56.67;22.50;;;;;;;0.22;100.00;101054.50;4967637;29;20043;-94
2023/03/04 04:09:42;;;;;;;53.83;21.55;;;;;;;-0.16;100.00;100978.75;4968181;28;20065;-94
2023/03/04 04:12:52;;;;;;;59.35;23.15;;;;;;;0.60;100.00;101078.16;4955193;28;20154;-95
2023/03/04 04:15:45;;;;;;;65.95;24.70;;;;;;;0.02;100.00;100966.72;4964585;28;20134;-94
2023/03/04 04:18:22;;;;;;;56.50;22.70;;;;;;;0.58;100.00;101052.94;4971119;28;20062;-95
2023/03/04 04:21:33;;;;;;;63.90;24.00;;;;;;;0.75;100.00;101076.47;4966650;28;21210;-93
2023/03/04 04:24:14;;;;;;;64.53;24.83;;;;;;;0.13;100.00;100972.88;4969665;28;20134;-93
2023/03/04 04:26:56;;;;;;;59.90;23.63;;;;;;;0.19;100.00;100972.88;4954552;29;20048;-93
2023/03/04 04:29:40;;;;;;;62.47;24.10;;;;;;;0.17;100.00;100967.66;4958294;29;20043;-94
2023/03/04 04:32:13;;;;;;;61.75;25.35;;;;;;;0.70;100.00;101042.56;4954705;29;20059;-94
2023/03/04 04:34:46;;;;;;;66.40;24.90;;;;;;;0.45;100.00;100999.91;4955277;28;20044;-94
2023/03/04 04:37:19;;;;;;;60.40;23.65;;;;;;;0.67;100.00;101024.31;4955019;29;20047;-92
2023/03/04 04:39:50;;;;;;;58.75;23.80;;;;;;;0.96;100.00;101068.69;4935441;29;20051;-93
2023/03/04 04:42:36;;;;;;;64.85;23.90;;;;;;;0.33;100.00;100955.56;4973012;28;20031;-92
2023/03/04 04:45:25;;;;;;;62.10;25.83;;;;;;;1.09;100.00;101078.31;4969465;28;20057;-90
2023/03/04 04:47:56;;;;;;;62.58;24.55;;;;;;;1.14;100.00;101078.31;4972481;28;20055;-90
2023/03/04 04:50:30;;;;;;;57.97;24.17;;;;;;;0.94;100.00;101029.63;4971260;28;20042;-90
2023/03/04 04:53:01;;;;;;;61.65;24.67;;;;;;;0.76;100.00;101000.88;4960205;29;20119;-95
2023/03/04 04:55:34;;;;;;;59.58;24.25;;;;;;;1.18;100.00;101072.25;4952268;29;20054;-93
2023/03/04 04:58:04;;;;;;;60.50;24.85;;;;;;;1.02;100.00;101033.09;4963725;29;20047;-95
2023/03/04 05:00:44;;;;;;;57.67;24.05;;;;;;;1.11;100.00;101023.53;4961630;29;20058;-91
2023/03/04 05:03:12;;;;;;;57.15;24.60;;;;;;;1.40;100.00;101061.00;4959281;29;20043;-93
2023/03/04 05:05:44;;;;;;;58.85;24.55;;;;;;;0.90;100.00;100978.31;4947625;29;20441;-92
2023/03/04 05:08:13;;;;;;;65.53;26.02;;;;;;;1.38;100.00;101060.97;4951319;29;20473;-90
2023/03/04 05:10:46;;;;;;;64.55;24.45;;;;;;;1.36;100.00;101060.09;4937747;29;20043;-94
2023/03/04 05:13:28;;;;;;;59.50;24.45;;;;;;;1.08;100.00;101010.50;4946002;29;20067;-92
2023/03/04 05:16:06;;;;;;;60.72;26.70;;;;;;;1.20;100.00;101034.00;4947783;29;20049;-91
2023/03/04 05:18:56;;;;;;;60.53;25.42;;;;;;;1.35;100.00;101068.81;4932295;29;20048;-93
2023/03/04 05:21:35;;;;;;;58.78;24.90;;;;;;;0.99;100.00;101009.59;4953253;29;20039;-91
2023/03/04 05:24:04;;;;;;;62.50;25.77;;;;;;;1.10;100.00;101020.06;4958099;28;20036;-90
2023/03/04 05:26:37;;;;;;;64.05;25.73;;;;;;;1.31;100.00;101066.19;4955567;28;20079;-91
2023/03/04 05:29:11;;;;;;;60.45;25.40;;;;;;;1.30;100.00;101072.25;4943014;29;20043;-93
2023/03/04 05:31:45;;;;;;;67.35;26.45;;;;;;;1.26;100.00;101067.94;4962155;29;20047;-95
2023/03/04 05:34:31;;;;;;;63.92;26.38;;;;;;;1.22;100.00;101069.66;4932618;29;20043;-92
2023/03/04 05:37:04;;;;;;;67.93;25.08;;;;;;;1.23;100.00;101065.31;4944628;29;20051;-94
2023/03/04 05:39:40;;;;;;;60.75;25.58;;;;;;;0.99;100.00;101017.44;4947248;29;20043;-92
2023/03/04 05:42:22;;;;;;;57.22;24.98;;;;;;;1.04;100.00;101018.31;4946075;29;20044;-91
2023/03/04 05:45:28;;;;;;;60.42;25.25;;;;;;;1.34;100.00;101072.28;4953546;29;20028;-92
2023/03/04 05:47:58;;;;;;;62.08;25.15;;;;;;;0.89;100.00;100997.44;4947534;29;20032;-91
2023/03/04 05:50:30;;;;;;;62.03;25.85;;;;;;;0.95;100.00;101010.47;4946516;28;20036;-92
2023/03/04 05:53:15;;;;;;;60.78;26.65;;;;;;;0.96;100.00;101008.72;4946703;29;20058;-93
2023/03/04 05:55:46;;;;;;;61.47;25.27;;;;;;;1.28;100.00;101076.59;4944152;29;20072;-90
2023/03/04 05:58:16;;;;;;;55.58;25.35;;;;;;;0.92;100.00;101002.66;4932126;29;20067;-93
2023/03/04 06:01:00;;;;;;;58.75;23.92;;;;;;;0.70;100.00;100957.41;4940411;29;20036;-93
2023/03/04 06:03:31;;;;;;;60.10;26.73;;;;;;;0.92;100.00;100992.22;4950074;29;20086;-92
2023/03/04 06:06:00;;;;;;;57.08;25.63;;;;;;;1.10;100.00;101027.03;4955552;28;20043;-91
2023/03/04 06:08:40;;;;;;;58.53;26.20;;;;;;;1.35;100.00;101063.59;4951998;28;20032;-92
2023/03/04 06:11:23;;;;;;;61.10;25.02;;;;;;;0.96;100.00;101001.78;4963570;28;20035;-89
2023/03/04 06:13:54;;;;;;;55.25;25.40;;;;;;;1.43;100.00;101081.84;4965523;28;20027;-92
2023/03/04 06:16:33;;;;;;;65.68;26.90;;;;;;;1.42;100.00;101082.69;4966989;28;20043;-92
2023/03/04 06:19:23;;;;;;;63.72;26.73;;;;;;;1.44;100.00;101082.72;4974386;28;20071;-90
2023/03/04 06:21:59;;;;;;;59.30;24.92;;;;;;;1.09;100.00;101027.91;4966854;28;20102;-91
2023/03/04 06:24:32;;;;;;;59.05;25.15;;;;;;;0.78;100.00;100972.22;4970233;28;20046;-90
2023/03/04 06:27:01;;;;;;;53.97;23.98;;;;;;;1.49;100.00;101100.13;4969033;28;20066;-91
2023/03/04 06:29:32;;;;;;;59.78;25.98;;;;;;;1.52;100.00;101105.34;4967625;28;20027;-91
2023/03/04 06:32:10;;;;;;;59.58;25.98;;;;;;;1.16;100.00;101035.72;4965778;28;20271;-91
2023/03/04 06:35:27;;;;;;;57.33;24.92;;;;;;;1.60;100.00;101098.38;4969380;29;20035;-94
2023/03/04 06:38:36;;;;;;;57.22;24.25;;;;;;;1.75;100.00;101114.06;5024382;23;20065;-91
2023/03/04 06:41:09;;;;;;;58.58;25.35;;;;;;;1.53;100.00;101083.63;4991330;28;20053;-92
2023/03/04 06:43:37;;;;;;;52.15;24.30;;;;;;;1.84;100.00;101115.81;4967920;28;20039;-92
2023/03/04 06:46:09;;;;;;;53.03;24.52;;;;;;;1.89;100.00;101126.28;4956586;28;20055;-93
2023/03/04 06:48:41;;;;;;;59.92;25.30;;;;;;;1.64;100.00;101087.09;4982407;28;20035;-92
2023/03/04 06:51:24;;;;;;;59.58;25.10;;;;;;;1.24;100.00;101020.09;4971059;28;20070;-92
2023/03/04 06:56:55;;;;;;;58.78;24.88;;;;;;;1.42;100.00;101054.00;5086325;23;20126;-93
2023/03/04 06:59:25;;;;;;;56.55;24.55;;;;;;;1.65;100.00;101080.13;4951602;29;20043;-92
2023/03/04 07:01:54;;;;;;;52.35;24.25;;;;;;;1.86;100.00;101121.03;4956705;28;20103;-93
2023/03/04 07:04:42;;;;;;;57.38;26.05;;;;;;;1.90;100.00;101117.53;4956782;28;20031;-94
2023/03/04 07:07:26;;;;;;;55.00;25.88;;;;;;;1.94;100.00;101119.28;4960553;28;20040;-94
2023/03/04 07:10:10;;;;;;;57.40;25.13;;;;;;;1.98;100.00;101123.66;4982106;23;20063;-94
2023/03/04 07:13:06;;;;;;;53.42;24.50;;;;;;;1.39;100.00;101012.28;4949930;29;20039;-94
2023/03/04 07:18:41;;;;;;;59.08;24.98;;;;;;;1.90;100.00;101104.47;5310669;23;20064;-95
2023/03/04 07:21:41;;;;;;;52.75;25.38;;;;;;;1.88;100.00;101098.41;4951379;29;20119;-94
2023/03/04 07:24:23;;;;;;;58.95;25.95;;;;;;;2.13;100.00;101130.59;4934417;29;20044;-92
2023/03/04 07:28:05;;;;;;;48.38;24.00;;;;;;;2.22;100.00;101138.41;5329642;23;20060;-93
2023/03/04 07:30:43;;;;;;;52.03;25.52;;;;;;;1.67;100.00;101044.44;4905409;29;20069;-95
2023/03/04 07:36:07;;;;;;;51.10;24.13;;;;;;;1.70;100.00;101029.66;5140396;23;20082;-94
2023/03/04 07:39:12;;;;;;;53.25;24.30;;;;;;;2.50;100.00;101147.13;4959231;28;20048;-95
2023/03/04 07:42:11;;;;;;;57.90;25.95;;;;;;;2.54;100.00;101147.06;4968231;28;20039;-95
2023/03/04 07:45:01;;;;;;;57.53;26.67;;;;;;;2.18;100.00;101089.69;4971036;28;20074;-95
2023/03/04 07:47:50;;;;;;;52.13;25.50;;;;;;;2.12;100.00;101077.47;4965297;28;20087;-94
2023/03/04 07:51:13;;;;;;;55.08;26.00;;;;;;;2.55;100.00;101153.19;4958922;28;20352;-94
2023/03/04 07:54:32;;;;;;;57.38;26.98;;;;;;;2.23;100.00;101095.75;4926372;29;21050;-96
2023/03/04 07:57:58;;;;;;;54.65;26.67;;;;;;;2.03;100.00;101067.06;4973561;28;20078;-94
2023/03/04 08:01:17;;;;;;;52.78;26.17;;;;;;;2.24;100.00;101095.75;4971712;28;20071;-95
2023/03/04 08:04:07;;;;;;;55.00;25.02;;;;;;;2.24;100.00;101090.50;4971478;28;20070;-95
2023/03/04 08:06:59;;;;;;;56.65;24.40;;;;;;;2.54;100.00;101138.38;4969760;28;20035;-95
2023/03/04 08:09:50;;;;;;;55.17;24.67;;;;;;;2.65;100.00;101153.19;4955815;28;20040;-95
2023/03/04 08:12:40;;;;;;;57.70;25.07;;;;;;;2.14;100.00;101048.75;4971568;28;20043;-95
2023/03/04 08:15:31;;;;;;;;;;;;;;;;;;;;;
2023/03/04 08:18:24;;;;;;;51.17;24.52;;;;;;;2.86;100.00;101153.97;4942104;29;20047;-94
2023/03/04 08:21:32;;;;;;;54.13;26.30;;;;;;;2.61;100.00;101103.50;4941404;29;20068;-96
2023/03/04 08:24:30;;;;;;;57.40;25.00;;;;;;;2.70;100.00;101127.84;4918879;29;20079;-94
2023/03/04 08:27:36;;;;;;;49.83;25.05;;;;;;;2.54;100.00;101102.63;4939230;29;20058;-95
2023/03/04 08:30:23;;;;;;;51.05;24.65;;;;;;;2.35;100.00;101060.03;4936444;29;20035;-95
2023/03/04 08:33:11;;;;;;;55.47;25.45;;;;;;;2.75;100.00;101128.72;4932015;29;20043;-94
2023/03/04 08:35:47;;;;;;;54.65;25.83;;;;;;;3.02;100.00;101172.22;4943757;29;20066;-94
2023/03/04 08:38:31;;;;;;;55.72;24.80;;;;;;;3.10;100.00;101173.06;4917868;29;20051;-95
2023/03/04 08:41:26;;;;;;;50.38;23.95;;;;;;;3.20;100.00;101173.03;4945205;29;20071;-96
2023/03/04 08:44:47;;;;;;;55.08;23.02;;;;;;;3.26;100.00;101167.78;4942216;29;20031;-96
2023/03/04 08:48:34;;;;;;;48.80;23.13;;;;;;;3.24;100.00;101169.53;4933123;29;20095;-96
2023/03/04 08:52:00;;;;;;;45.05;21.65;;;;;;;2.85;100.00;101112.97;4935008;29;20051;-95
2023/03/04 08:55:01;;;;;;;58.33;23.95;;;;;;;2.69;100.00;101080.78;4956565;28;20027;-95
2023/03/04 09:00:53;;;;;;;44.15;22.65;;;;;;;3.12;100.00;101123.34;5066982;23;20040;-95
2023/03/04 09:03:35;;;;;;;52.78;23.25;;;;;;;3.39;100.00;101164.22;4956285;28;20039;-94
2023/03/04 09:09:03;;;;;;;42.67;20.27;;;;;;;3.41;100.00;101163.31;5181968;23;20052;-95
2023/03/04 09:11:55;;;;;;;43.90;21.48;;;;;;;2.86;100.00;101067.66;4972981;28;20051;-95
2023/03/04 09:15:09;;;;;;;;;;;;;;;;;;;;;
2023/03/04 09:18:28;;;;;;;52.03;23.70;;;;;;;3.55;100.00;101165.00;4958665;29;20106;-93
2023/03/04 09:21:14;;;;;;;49.00;23.58;;;;;;;3.60;100.00;101151.00;4963731;28;20050;-95
2023/03/04 09:24:06;;;;;;;44.05;22.17;;;;;;;3.44;100.00;101104.84;4967932;28;20047;-94
2023/03/04 09:26:35;;;;;;;45.38;22.85;;;;;;;3.40;100.00;101095.25;4968403;28;20039;-94
2023/03/04 09:29:14;;;;;;;44.70;22.35;;;;;;;3.79;100.00;101159.56;4968277;29;20044;-95
2023/03/04 09:32:25;;;;;;;40.75;21.02;;;;;;;3.89;100.00;101163.88;4972334;28;20049;-95
2023/03/04 09:35:47;;;;;;;45.60;22.83;;;;;;;3.75;100.00;101132.56;4928837;29;20098;-95
2023/03/04 09:38:57;;;;;;;47.28;23.50;;;;;;;3.68;100.00;101098.53;4965898;28;20037;-94
2023/03/04 09:41:58;;;;;;;43.17;21.33;;;;;;;3.84;100.00;101123.75;4969023;28;20289;-94
2023/03/04 09:55:51;;;;;;;37.22;19.83;;;;;;;4.04;96.47;101082.53;4952592;28;20062;-94
2023/03/04 09:58:51;;;;;;;42.60;20.83;;;;;;;4.31;94.50;101106.72;4962235;28;20027;-93
2023/03/04 10:01:57;;;;;;;40.53;20.48;;;;;;;4.62;93.75;101162.34;4968544;28;20027;-95
2023/03/04 10:04:58;;;;;;;37.75;18.60;;;;;;;4.68;93.47;101155.28;4975068;28;20054;-95
2023/03/04 10:08:10;;;;;;;43.10;19.70;;;;;;;4.53;91.88;101097.75;4970492;28;20098;-95
2023/03/04 10:11:26;;;;;;;43.75;19.10;;;;;;;4.79;90.19;101110.56;5208905;23;20114;-95
2023/03/04 10:14:50;;;;;;;;;;;;;;;;;;;;;
2023/03/04 10:17:46;;;;;;;36.60;17.52;;;;;;;4.94;90.07;101147.13;4971479;28;20114;-93
2023/03/04 10:20:54;;;;;;;33.92;17.15;;;;;;;4.98;89.73;101148.81;4966868;28;20066;-92
2023/03/04 10:23:53;;;;;;;32.33;15.82;;;;;;;4.73;89.94;101115.88;4959634;28;20150;-94
2023/03/04 10:27:16;;;;;;;34.38;15.80;;;;;;;4.53;89.95;101089.88;4955243;29;20039;-94
2023/03/04 10:30:18;;;;;;;33.22;15.88;;;;;;;4.92;88.81;101141.88;4970441;28;20091;-95
2023/03/04 10:33:29;;;;;;;33.70;14.70;;;;;;;4.68;87.73;101067.84;4951813;28;20190;-94
2023/03/04 10:36:47;;;;;;;32.20;14.52;;;;;;;5.04;86.96;101119.84;4962254;29;20081;-94
2023/03/04 10:39:54;;;;;;;34.05;14.50;;;;;;;4.89;86.38;101080.69;4945004;28;20520;-93
2023/03/04 10:42:43;;;;;;;33.00;14.32;;;;;;;5.28;85.65;101127.44;4950043;29;20081;-93
2023/03/04 10:45:37;;;;;;;26.17;12.15;;;;;;;5.02;84.36;101057.78;4964421;28;20064;-92
2023/03/04 10:48:36;;;;;;;19.00;9.23;;;;;;;5.21;82.22;101057.50;4962181;28;20054;-92
2023/03/04 10:51:28;;;;;;;20.65;9.32;;;;;;;5.40;80.04;101068.59;4947534;29;20566;-93
2023/03/04 10:54:42;;;;;;;15.73;7.28;;;;;;;5.83;79.27;101123.97;4964168;28;20091;-94
2023/03/04 10:57:40;;;;;;;18.50;6.88;;;;;;;5.67;78.30;101077.78;4959174;28;20062;-93
2023/03/04 11:00:27;;;;;;;20.40;6.55;;;;;;;5.88;77.41;101116.91;4956564;29;20044;-92
2023/03/04 11:03:46;;;;;;;17.10;6.68;;;;;;;5.76;76.90;101108.34;4943828;29;20043;-95
2023/03/04 11:06:32;;;;;;;19.17;6.72;;;;;;;5.00;77.17;100994.81;4946139;28;20040;-96
2023/03/04 11:09:28;;;;;;;16.50;6.55;;;;;;;5.38;78.72;101086.13;4955161;28;20045;-94
2023/03/04 11:12:17;;;;;;;18.65;6.65;;;;;;;4.84;79.31;100982.81;4960093;28;20091;-96
2023/03/04 11:15:30;;;;;;;25.05;6.65;;;;;;;5.33;79.07;101055.59;4967842;28;20135;-95
2023/03/04 11:18:54;;;;;;;18.52;6.80;;;;;;;5.33;79.27;101045.97;4973986;28;20063;-94
2023/03/04 11:21:47;;;;;;;16.33;6.40;;;;;;;5.53;77.43;101082.41;4971103;28;20059;-95
2023/03/04 11:24:52;;;;;;;12.32;6.00;;;;;;;5.26;78.09;101044.31;4970319;28;20112;-95
2023/03/04 11:28:00;;;;;;;20.60;7.07;;;;;;;5.62;78.63;101098.03;4969541;28;20052;-94
2023/03/04 11:31:10;;;;;;;17.67;7.10;;;;;;;5.51;79.69;101079.78;4969567;28;20042;-96
2023/03/04 11:34:44;;;;;;;17.23;6.13;;;;;;;5.57;78.45;101097.25;4967804;28;20071;-95
2023/03/04 11:37:59;;;;;;;14.77;5.95;;;;;;;5.62;79.62;101098.91;4974591;28;20051;-95
2023/03/04 11:40:48;;;;;;;18.23;5.97;;;;;;;5.38;78.25;101036.22;4935927;28;20097;-95
2023/03/04 11:43:47;;;;;;;13.68;5.75;;;;;;;5.37;78.39;101029.25;4972636;29;20032;-95
2023/03/04 11:46:59;;;;;;;13.65;5.68;;;;;;;5.29;78.36;100999.63;4964892;28;20052;-96
2023/03/04 11:50:15;;;;;;;11.88;5.45;;;;;;;5.91;77.45;101080.06;4973323;29;20035;-94
2023/03/04 11:54:06;;;;;;;;;;;;;;;;;;;;;
2023/03/04 12:03:26;;;;;;;12.73;5.57;;;;;;;6.06;74.70;101071.06;4933236;29;20059;-96
2023/03/04 12:06:41;;;;;;;11.63;4.50;;;;;;;6.14;74.84;101068.31;4892719;29;20120;-94
2023/03/04 12:09:42;;;;;;;15.30;5.28;;;;;;;6.20;75.58;101041.88;4856339;29;20076;-94
2023/03/04 12:12:35;;;;;;;15.43;5.32;;;;;;;6.38;73.16;101066.97;4898020;29;20048;-94
2023/03/04 12:15:31;;;;;;;13.20;4.97;;;;;;;6.41;73.11;101056.38;4909342;29;20052;-93
2023/03/04 12:18:22;;;;;;;10.75;4.70;;;;;;;6.38;73.03;101031.00;4902942;29;20047;-95
2023/03/04 12:21:54;;;;;;;9.05;4.22;;;;;;;6.62;71.85;101046.28;4918109;29;20040;-95
2023/03/04 12:25:22;;;;;;;10.68;4.45;;;;;;;6.61;70.07;101046.34;4913174;29;20052;-91
2023/03/04 12:28:24;;;;;;;10.80;4.13;;;;;;;6.49;69.58;101044.81;4907962;29;20044;-93
2023/03/04 12:31:39;;;;;;;13.75;4.50;;;;;;;6.34;71.16;101034.59;4909915;29;20044;-93
2023/03/04 12:35:00;;;;;;;;;;;;;;;;;;;;;
2023/03/04 12:38:06;;;;;;;6.90;3.97;;;;;;;6.43;69.64;101033.56;4898012;29;20040;-93
2023/03/04 12:40:47;;;;;;;11.27;4.00;;;;;;;6.20;68.59;100984.88;4918428;29;20040;-92
2023/03/04 12:47:22;;;;;;;9.05;3.63;;;;;;;6.90;67.01;101008.88;4920422;29;20055;-92
2023/03/04 12:50:55;;;;;;;8.77;3.35;;;;;;;6.69;66.63;100982.09;4893500;29;20513;-89
2023/03/04 12:54:15;;;;;;;11.65;3.88;;;;;;;6.97;66.94;101002.56;4930016;29;20129;-94
2023/03/04 12:57:20;;;;;;;11.15;3.78;;;;;;;6.98;66.91;100993.75;4917331;29;20075;-91
2023/03/04 13:00:10;;;;;;;9.82;4.00;;;;;;;6.90;66.70;100993.94;4926077;29;20036;-93
2023/03/04 13:03:03;;;;;;;8.07;3.10;;;;;;;6.82;66.36;100958.13;4922544;29;20032;-93
2023/03/04 13:05:49;;;;;;;11.48;3.60;;;;;;;7.06;67.19;100976.03;4922949;29;20116;-92
2023/03/04 13:08:49;;;;;;;10.60;3.88;;;;;;;7.09;66.35;100957.50;4930846;29;20032;-92
2023/03/04 13:11:43;;;;;;;6.45;3.20;;;;;;;7.28;66.30;100957.91;4924738;29;20048;-93
2023/03/04 13:14:34;;;;;;;9.32;3.17;;;;;;;7.28;64.56;100976.34;4922269;29;20060;-94
2023/03/04 13:17:41;;;;;;;8.73;3.50;;;;;;;7.14;64.71;100960.88;4894614;29;20047;-93
2023/03/04 13:20:37;;;;;;;18.02;4.85;;;;;;;7.27;66.04;100961.47;4918747;29;20113;-92
2023/03/04 13:23:25;;;;;;;12.98;4.93;;;;;;;6.58;65.60;100876.22;4907799;29;20036;-91
2023/03/04 13:26:20;;;;;;;16.10;4.85;;;;;;;7.04;66.50;100962.03;4921396;29;20064;-91
2023/03/04 13:29:36;;;;;;;13.82;5.32;;;;;;;7.21;66.50;100959.84;4916909;29;20028;-94
2023/03/04 13:32:11;;;;;;;10.98;5.25;;;;;;;7.14;66.83;100913.47;4925380;29;20056;-93
2023/03/04 13:34:58;;;;;;;13.63;5.15;;;;;;;7.48;65.79;100944.25;4917948;29;20039;-93
2023/03/04 13:38:01;;;;;;;13.80;5.60;;;;;;;7.60;64.77;100939.53;4913896;29;20096;-93